Time;durP1;ratioP1;P1;durP2;ratioP2;P2;SDS_P1;SDS_P2;PMS_P1;PMS_P2;Temp;Humidity;BMP_temperature;BMP_pressure;BME280_temperature;BME280_humidity;BME280_pressure;Samples;Min_cycle;Max_cycle;Signal;HPM_P1;HPM_P2
2022/09/02 00:01:45;;;;;;;5.20;2.58;;;15.60;61.60;;;;;;5052263;28;20038;-63
2022/09/02 00:04:21;;;;;;;2.90;2.58;;;15.60;62.40;;;;;;5052251;28;20372;-62
2022/09/02 00:06:48;;;;;;;4.30;2.53;;;15.50;62.40;;;;;;5045376;28;20032;-61
2022/09/02 00:09:17;;;;;;;5.70;2.97;;;15.50;61.60;;;;;;5055862;28;20036;-61
2022/09/02 00:11:44;;;;;;;2.75;2.53;;;15.40;61.70;;;;;;5060009;28;20044;-64
2022/09/02 00:14:15;;;;;;;4.25;2.58;;;15.40;61.80;;;;;;5046601;28;20030;-62
2022/09/02 00:16:43;;;;;;;2.90;2.60;;;15.40;62.10;;;;;;5053584;28;20017;-61
2022/09/02 00:19:09;;;;;;;5.68;2.67;;;15.40;62.00;;;;;;5054360;28;20542;-62
2022/09/02 00:21:35;;;;;;;3.15;2.45;;;15.30;62.00;;;;;;5063540;28;20037;-62
2022/09/02 00:24:03;;;;;;;3.55;2.47;;;15.30;62.00;;;;;;5050406;28;20044;-61
2022/09/02 00:26:29;;;;;;;3.80;2.47;;;15.30;62.30;;;;;;5060412;28;20467;-63
2022/09/02 00:28:56;;;;;;;4.72;2.53;;;15.30;62.20;;;;;;5050259;28;20074;-62
2022/09/02 00:31:22;;;;;;;4.40;2.72;;;15.20;62.30;;;;;;5057706;28;20069;-62
2022/09/02 00:33:49;;;;;;;4.43;2.70;;;15.20;62.30;;;;;;5044869;28;20049;-63
2022/09/02 00:36:15;;;;;;;3.63;2.55;;;15.20;62.40;;;;;;5063115;28;20025;-62
2022/09/02 00:38:41;;;;;;;3.28;2.72;;;15.10;62.40;;;;;;5053321;28;20475;-63
2022/09/02 00:41:09;;;;;;;3.13;2.35;;;15.10;62.40;;;;;;5056391;28;20033;-62
2022/09/02 00:43:52;;;;;;;4.25;2.58;;;15.10;63.40;;;;;;5054405;28;20083;-62
2022/09/02 00:46:20;;;;;;;3.92;2.70;;;15.10;63.30;;;;;;5040310;28;20033;-62
2022/09/02 00:48:52;;;;;;;2.78;2.30;;;15.00;62.60;;;;;;5054476;28;20026;-61
2022/09/02 00:51:20;;;;;;;3.78;2.78;;;15.00;62.80;;;;;;5064086;28;20040;-61
2022/09/02 00:53:48;;;;;;;3.25;2.42;;;14.90;62.60;;;;;;5043363;28;20087;-61
2022/09/02 00:56:25;;;;;;;4.18;2.30;;;14.90;62.80;;;;;;5057007;28;20039;-61
2022/09/02 00:58:51;;;;;;;2.85;2.53;;;14.90;63.00;;;;;;5037794;28;20399;-61
2022/09/02 01:01:18;;;;;;;2.58;2.03;;;14.90;62.80;;;;;;5056536;28;20021;-63
2022/09/02 01:03:43;;;;;;;3.05;2.10;;;14.90;62.70;;;;;;5045264;28;20045;-61
2022/09/02 01:06:14;;;;;;;3.88;2.35;;;14.80;62.70;;;;;;5060208;28;20743;-62
2022/09/02 01:08:44;;;;;;;4.55;2.25;;;14.80;62.90;;;;;;5054517;28;20037;-62
2022/09/02 01:11:11;;;;;;;3.53;2.20;;;14.80;63.00;;;;;;5059476;28;20028;-61
2022/09/02 01:13:40;;;;;;;2.90;2.60;;;14.70;62.80;;;;;;5053856;28;20039;-62
2022/09/02 01:16:25;;;;;;;3.38;2.47;;;14.70;62.80;;;;;;5059588;28;20048;-63
2022/09/02 01:18:56;;;;;;;3.95;2.40;;;14.70;63.30;;;;;;5046362;28;20156;-61
2022/09/02 01:21:22;;;;;;;5.95;2.20;;;14.70;62.80;;;;;;5075959;28;20029;-61
2022/09/02 01:23:49;;;;;;;2.67;2.47;;;14.60;62.80;;;;;;5046551;28;20373;-61
2022/09/02 01:26:15;;;;;;;3.58;2.38;;;14.60;63.00;;;;;;5061503;28;20036;-62
2022/09/02 01:28:41;;;;;;;3.83;2.45;;;14.60;63.00;;;;;;5050992;28;20025;-61
2022/09/02 01:31:06;;;;;;;3.15;2.85;;;14.60;63.20;;;;;;5057265;28;20044;-62
2022/09/02 01:33:32;;;;;;;2.83;2.58;;;14.50;63.20;;;;;;5051474;28;20021;-64
2022/09/02 01:35:59;;;;;;;3.40;2.65;;;14.50;63.20;;;;;;5052835;28;20051;-62
2022/09/02 01:38:25;;;;;;;2.65;2.45;;;14.50;63.30;;;;;;5052892;28;20028;-61
2022/09/02 01:40:51;;;;;;;11.10;2.97;;;14.40;63.40;;;;;;5058693;28;20024;-62
2022/09/02 01:43:22;;;;;;;4.03;2.50;;;14.40;63.40;;;;;;5063105;28;20036;-62
2022/09/02 01:45:51;;;;;;;3.78;2.90;;;14.40;63.50;;;;;;5031059;28;20040;-63
2022/09/02 01:48:17;;;;;;;2.75;2.55;;;14.40;63.60;;;;;;5059449;28;20101;-63
2022/09/02 01:50:46;;;;;;;2.67;2.30;;;14.40;63.30;;;;;;5054320;28;20036;-61
2022/09/02 01:53:13;;;;;;;5.10;2.40;;;14.30;63.40;;;;;;5062023;28;20063;-62
2022/09/02 01:55:39;;;;;;;2.47;2.28;;;14.30;63.40;;;;;;5044582;28;20029;-62
2022/09/02 01:58:05;;;;;;;2.85;2.58;;;14.30;63.40;;;;;;5063953;28;20025;-62
2022/09/02 02:00:31;;;;;;;3.10;2.50;;;14.20;63.50;;;;;;5049858;28;20046;-61
2022/09/02 02:02:56;;;;;;;2.95;2.53;;;14.20;63.50;;;;;;5052030;28;20040;-62
2022/09/02 02:05:22;;;;;;;3.90;2.90;;;14.20;63.60;;;;;;5059884;28;20040;-64
2022/09/02 02:07:48;;;;;;;2.75;2.28;;;14.10;63.70;;;;;;5067694;28;20033;-63
2022/09/02 02:10:17;;;;;;;2.67;2.47;;;14.10;63.60;;;;;;5041351;28;20028;-61
2022/09/02 02:12:42;;;;;;;2.92;2.25;;;14.10;63.70;;;;;;5040142;28;20057;-62
2022/09/02 02:15:13;;;;;;;7.00;2.30;;;14.10;63.60;;;;;;5060267;28;20032;-61
2022/09/02 02:17:38;;;;;;;3.30;2.15;;;14.10;63.70;;;;;;5045944;28;20053;-61
2022/09/02 02:20:05;;;;;;;2.10;1.90;;;14.00;63.60;;;;;;5060283;28;20041;-62
2022/09/02 02:22:31;;;;;;;3.60;2.03;;;14.00;63.60;;;;;;5049973;28;20056;-61
2022/09/02 02:24:57;;;;;;;2.17;1.98;;;13.90;63.50;;;;;;5055497;28;20472;-61
2022/09/02 02:27:22;;;;;;;2.30;1.75;;;13.90;63.60;;;;;;5051605;28;20037;-61
2022/09/02 02:29:48;;;;;;;2.33;1.90;;;13.90;63.60;;;;;;5053144;28;20060;-61
2022/09/02 02:32:17;;;;;;;3.40;2.10;;;13.80;63.60;;;;;;5046583;28;20041;-62
2022/09/02 02:34:43;;;;;;;3.50;1.90;;;13.80;63.60;;;;;;5053257;28;20032;-61
2022/09/02 02:37:11;;;;;;;4.30;1.73;;;13.80;63.60;;;;;;5052726;28;20118;-60
2022/09/02 02:39:38;;;;;;;2.42;1.75;;;13.80;63.70;;;;;;5052831;28;20052;-61
2022/09/02 02:42:04;;;;;;;2.97;2.20;;;13.70;63.80;;;;;;5054659;28;20044;-61
2022/09/02 02:44:30;;;;;;;1.80;1.70;;;13.70;63.90;;;;;;5053860;28;20030;-61
2022/09/02 02:46:56;;;;;;;2.20;1.80;;;13.70;64.10;;;;;;5055309;28;20079;-61
2022/09/02 02:49:22;;;;;;;2.70;2.08;;;13.60;64.20;;;;;;5055727;28;20026;-61
2022/09/02 02:51:48;;;;;;;2.67;1.75;;;13.60;64.30;;;;;;5055289;28;20488;-61
2022/09/02 02:54:14;;;;;;;1.85;1.75;;;13.60;64.40;;;;;;5051481;28;20165;-61
2022/09/02 02:56:40;;;;;;;2.88;1.70;;;13.60;64.40;;;;;;5049567;28;20081;-62
2022/09/02 02:59:06;;;;;;;2.00;1.75;;;13.60;64.40;;;;;;5055446;28;20021;-63
2022/09/02 03:01:32;;;;;;;3.92;2.00;;;13.60;64.40;;;;;;5055419;28;20033;-62
2022/09/02 03:03:58;;;;;;;1.67;1.58;;;13.60;64.40;;;;;;5054363;28;20037;-61
2022/09/02 03:06:25;;;;;;;2.60;1.75;;;13.60;64.30;;;;;;5065694;28;20044;-60
2022/09/02 03:08:52;;;;;;;9.10;1.88;;;13.50;64.20;;;;;;5057738;28;20072;-61
2022/09/02 03:11:21;;;;;;;3.65;2.38;;;13.50;64.20;;;;;;5049925;28;20033;-61
2022/09/02 03:13:48;;;;;;;2.80;2.00;;;13.50;64.50;;;;;;5053647;28;20061;-60
2022/09/02 03:16:13;;;;;;;2.53;1.83;;;13.50;64.50;;;;;;5059625;28;20034;-61
2022/09/02 03:18:39;;;;;;;2.20;2.00;;;13.50;64.50;;;;;;5050338;28;20048;-61
2022/09/02 03:21:09;;;;;;;4.93;2.10;;;13.50;64.50;;;;;;5066154;28;20051;-62
2022/09/02 03:23:35;;;;;;;4.10;1.98;;;13.40;64.80;;;;;;5056406;28;20594;-60
2022/09/02 03:26:01;;;;;;;3.90;2.20;;;13.40;64.80;;;;;;5063806;28;20419;-60
2022/09/02 03:28:27;;;;;;;3.50;2.17;;;13.40;64.80;;;;;;5053293;28;20086;-61
2022/09/02 03:30:55;;;;;;;3.75;1.73;;;13.40;64.70;;;;;;5064605;28;20040;-61
2022/09/02 03:33:20;;;;;;;3.90;1.95;;;13.40;64.60;;;;;;5057175;28;20068;-63
2022/09/02 03:35:46;;;;;;;4.70;2.00;;;13.40;64.60;;;;;;5065287;28;20029;-62
2022/09/02 03:38:12;;;;;;;2.53;1.90;;;13.40;64.70;;;;;;5063065;28;20033;-61
2022/09/02 03:40:38;;;;;;;2.05;1.83;;;13.30;64.70;;;;;;5065869;28;20029;-60
2022/09/02 03:43:04;;;;;;;1.70;1.60;;;13.30;64.60;;;;;;5049766;28;20037;-62
2022/09/02 03:45:31;;;;;;;2.83;2.10;;;13.30;64.50;;;;;;5056396;28;20051;-61
2022/09/02 03:47:57;;;;;;;2.97;1.92;;;13.30;64.60;;;;;;5058268;28;20098;-63
2022/09/02 03:50:30;;;;;;;2.65;2.00;;;13.30;64.60;;;;;;5063675;28;20083;-62
2022/09/02 03:52:56;;;;;;;3.10;2.00;;;13.20;64.90;;;;;;5048372;28;20096;-61
2022/09/02 03:55:23;;;;;;;2.67;1.88;;;13.20;64.60;;;;;;5055590;28;20029;-63
2022/09/02 03:57:49;;;;;;;2.10;1.90;;;13.20;64.60;;;;;;5054891;28;20056;-62
2022/09/02 04:00:17;;;;;;;2.33;1.77;;;13.20;64.70;;;;;;5045742;28;20048;-61
2022/09/02 04:02:43;;;;;;;3.05;1.77;;;13.20;64.80;;;;;;5052092;28;20363;-63
2022/09/02 04:05:11;;;;;;;3.85;2.22;;;13.20;64.80;;;;;;5055322;28;20052;-63
2022/09/02 04:07:38;;;;;;;8.88;2.15;;;13.20;64.90;;;;;;5056618;28;20040;-61
2022/09/02 04:10:05;;;;;;;3.67;2.22;;;13.20;64.90;;;;;;5063023;28;20028;-62
2022/09/02 04:12:30;;;;;;;3.10;2.10;;;13.10;65.00;;;;;;5041082;28;20064;-60
2022/09/02 04:14:57;;;;;;;4.80;2.10;;;13.10;65.00;;;;;;5060926;28;20049;-62
2022/09/02 04:17:23;;;;;;;6.43;2.40;;;13.10;65.10;;;;;;5047773;28;20056;-62
2022/09/02 04:19:49;;;;;;;2.90;2.40;;;13.10;65.00;;;;;;5055663;28;20393;-61
2022/09/02 04:22:14;;;;;;;4.28;1.90;;;13.10;64.90;;;;;;5050523;28;20029;-62
2022/09/02 04:24:40;;;;;;;2.60;2.33;;;13.10;64.90;;;;;;5065103;28;20033;-62
2022/09/02 04:27:07;;;;;;;2.30;2.05;;;13.10;64.90;;;;;;5051906;28;20061;-62
2022/09/02 04:29:32;;;;;;;2.47;1.85;;;13.10;64.90;;;;;;5058236;28;20716;-63
2022/09/02 04:31:58;;;;;;;4.35;1.88;;;13.10;64.90;;;;;;5053932;28;20025;-61
2022/09/02 04:34:23;;;;;;;3.58;2.05;;;13.00;64.70;;;;;;5058803;28;20029;-62
2022/09/02 04:36:49;;;;;;;1.88;1.77;;;13.00;64.60;;;;;;5057478;28;20044;-62
2022/09/02 04:39:15;;;;;;;2.47;1.80;;;13.00;64.70;;;;;;5061660;28;20929;-61
2022/09/02 04:41:41;;;;;;;2.65;1.88;;;13.00;64.70;;;;;;5061651;28;20459;-61
2022/09/02 04:44:07;;;;;;;2.35;1.77;;;13.00;64.70;;;;;;5062368;28;20024;-62
2022/09/02 04:46:32;;;;;;;3.30;2.35;;;13.00;64.80;;;;;;5063387;28;20043;-61
2022/09/02 04:48:58;;;;;;;7.75;1.85;;;13.00;64.80;;;;;;5058665;28;20033;-61
2022/09/02 04:51:25;;;;;;;2.17;1.98;;;12.90;64.90;;;;;;5053283;28;20028;-63
2022/09/02 04:53:52;;;;;;;3.38;1.80;;;12.90;64.90;;;;;;5056735;28;20040;-62
2022/09/02 04:56:24;;;;;;;2.45;1.95;;;12.90;64.90;;;;;;5062133;28;20040;-61
2022/09/02 04:58:51;;;;;;;2.17;1.98;;;12.90;65.00;;;;;;5054706;28;20033;-62
2022/09/02 05:01:20;;;;;;;2.17;1.98;;;12.90;65.10;;;;;;5063456;28;20053;-62
2022/09/02 05:03:47;;;;;;;3.33;1.98;;;12.90;65.10;;;;;;5057693;28;20025;-63
2022/09/02 05:06:15;;;;;;;2.00;1.80;;;12.90;65.20;;;;;;5063624;28;20041;-62
2022/09/02 05:08:41;;;;;;;1.88;1.70;;;12.90;65.30;;;;;;5059398;28;20020;-61
2022/09/02 05:11:09;;;;;;;4.30;2.08;;;12.90;65.40;;;;;;5057398;28;20083;-61
2022/09/02 05:13:35;;;;;;;4.32;2.20;;;12.90;65.60;;;;;;5062086;28;20025;-62
2022/09/02 05:16:01;;;;;;;5.50;2.00;;;12.90;65.60;;;;;;5043063;28;20079;-61
2022/09/02 05:18:27;;;;;;;3.72;1.88;;;12.90;66.50;;;;;;5056946;28;20024;-63
2022/09/02 05:20:53;;;;;;;2.17;1.95;;;12.90;65.90;;;;;;5045417;28;20100;-61
2022/09/02 05:23:19;;;;;;;2.53;1.90;;;13.00;65.90;;;;;;5044051;28;20089;-62
2022/09/02 05:25:44;;;;;;;1.95;1.67;;;13.00;66.00;;;;;;5042570;28;20040;-61
2022/09/02 05:28:10;;;;;;;2.42;1.98;;;13.10;66.10;;;;;;5053531;28;20033;-60
2022/09/02 05:30:38;;;;;;;2.55;1.88;;;13.10;66.10;;;;;;5054606;28;20026;-62
2022/09/02 05:33:04;;;;;;;4.68;1.88;;;13.20;66.20;;;;;;5045263;28;20089;-61
2022/09/02 05:35:30;;;;;;;1.83;1.67;;;13.20;66.30;;;;;;5052263;28;20040;-62
2022/09/02 05:37:56;;;;;;;3.67;1.63;;;13.30;66.40;;;;;;5045032;28;20080;-62
2022/09/02 05:40:23;;;;;;;2.20;1.73;;;13.40;66.60;;;;;;5045650;28;20039;-61
2022/09/02 05:42:48;;;;;;;2.58;1.92;;;13.40;66.60;;;;;;5045632;28;20040;-61
2022/09/02 05:45:14;;;;;;;3.80;2.00;;;13.50;66.60;;;;;;5045083;28;20145;-60
2022/09/02 05:47:39;;;;;;;5.70;2.00;;;13.60;66.50;;;;;;5051304;28;20108;-60
2022/09/02 05:50:06;;;;;;;4.47;2.25;;;13.70;66.50;;;;;;5050044;28;20033;-62
2022/09/02 05:52:32;;;;;;;3.45;2.22;;;13.80;66.60;;;;;;5030558;28;20030;-61
2022/09/02 05:54:59;;;;;;;3.00;2.30;;;13.90;66.50;;;;;;5052411;28;20519;-61
2022/09/02 05:57:25;;;;;;;4.80;2.17;;;14.00;66.50;;;;;;5048936;28;20102;-64
2022/09/02 05:59:55;;;;;;;2.72;2.10;;;14.20;66.70;;;;;;5064148;28;20483;-60
2022/09/02 06:02:22;;;;;;;2.53;2.25;;;14.30;67.50;;;;;;5042822;28;20079;-61
2022/09/02 06:04:50;;;;;;;3.05;2.10;;;14.40;67.00;;;;;;5058616;28;20034;-59
2022/09/02 06:07:17;;;;;;;4.03;3.03;;;14.50;66.80;;;;;;5045141;28;20113;-59
2022/09/02 06:09:43;;;;;;;5.78;2.85;;;14.70;66.80;;;;;;5055735;28;20032;-61
2022/09/02 06:12:10;;;;;;;3.42;2.40;;;14.80;66.70;;;;;;5051438;28;20029;-61
2022/09/02 06:14:37;;;;;;;3.35;2.33;;;14.90;66.50;;;;;;5052790;28;20028;-59
2022/09/02 06:17:04;;;;;;;6.00;2.60;;;15.10;66.60;;;;;;5067969;28;20025;-60
2022/09/02 06:19:31;;;;;;;2.53;1.83;;;15.20;66.50;;;;;;5045125;28;20054;-60
2022/09/02 06:21:58;;;;;;;2.58;2.10;;;15.30;66.30;;;;;;5048002;28;20120;-61
2022/09/02 06:24:25;;;;;;;3.20;1.77;;;15.50;66.20;;;;;;5062951;28;20048;-59
2022/09/02 06:26:52;;;;;;;4.35;1.75;;;15.60;66.10;;;;;;5045269;28;20065;-61
2022/09/02 06:29:19;;;;;;;4.20;1.90;;;15.80;65.90;;;;;;5062205;28;20030;-61
2022/09/02 06:31:47;;;;;;;3.13;2.00;;;15.90;65.50;;;;;;5039015;28;20654;-60
2022/09/02 06:34:15;;;;;;;3.60;1.55;;;16.10;65.20;;;;;;5039618;28;20022;-61
2022/09/02 06:36:42;;;;;;;2.30;1.58;;;16.30;64.90;;;;;;5058347;28;20032;-60
2022/09/02 06:39:12;;;;;;;2.47;1.75;;;16.40;64.60;;;;;;5059099;28;20062;-60
2022/09/02 06:41:39;;;;;;;2.83;1.70;;;16.60;64.50;;;;;;5063086;28;20040;-61
2022/09/02 06:44:06;;;;;;;3.78;1.67;;;16.70;64.10;;;;;;5037553;28;20085;-60
2022/09/02 06:46:39;;;;;;;9.25;1.85;;;16.80;63.80;;;;;;5049053;28;20037;-61
2022/09/02 06:49:06;;;;;;;2.97;1.52;;;17.00;63.40;;;;;;5062763;28;20033;-60
2022/09/02 06:51:35;;;;;;;2.30;1.50;;;17.10;64.10;;;;;;5052033;28;20036;-60
2022/09/02 06:54:02;;;;;;;3.28;1.55;;;17.20;63.20;;;;;;5066253;28;20034;-59
2022/09/02 06:56:28;;;;;;;1.88;1.20;;;17.40;63.00;;;;;;5055398;28;20026;-61
2022/09/02 06:58:54;;;;;;;2.08;1.65;;;17.50;62.80;;;;;;5056535;28;20026;-61
2022/09/02 07:01:23;;;;;;;2.08;1.60;;;17.60;62.30;;;;;;5061656;28;20020;-61
2022/09/02 07:06:40;;;;;;;3.15;1.50;;;17.90;62.40;;;;;;5051153;28;20127;-60
2022/09/02 07:09:08;;;;;;;2.33;1.40;;;18.00;61.80;;;;;;5051162;28;20064;-60
2022/09/02 07:11:35;;;;;;;3.28;1.65;;;18.10;61.70;;;;;;5044487;28;20480;-61
2022/09/02 07:14:01;;;;;;;2.55;1.63;;;18.20;61.50;;;;;;5048216;28;20522;-60
2022/09/02 07:16:33;;;;;;;1.42;1.33;;;18.30;61.40;;;;;;5050171;28;20088;-60
2022/09/02 07:19:00;;;;;;;4.22;1.50;;;18.40;61.30;;;;;;5053528;28;20519;-60
2022/09/02 07:21:27;;;;;;;1.80;1.33;;;18.60;61.10;;;;;;5028142;28;20022;-60
2022/09/02 07:23:54;;;;;;;5.78;1.60;;;18.70;60.90;;;;;;5045851;28;20029;-59
2022/09/02 07:26:21;;;;;;;2.13;1.25;;;18.80;60.60;;;;;;5047709;28;20029;-61
2022/09/02 07:28:47;;;;;;;2.15;1.30;;;18.90;60.10;;;;;;5061060;28;20021;-60
2022/09/02 07:31:14;;;;;;;1.48;1.33;;;19.00;60.20;;;;;;5054726;28;20047;-61
2022/09/02 07:33:40;;;;;;;2.97;1.58;;;19.10;59.90;;;;;;5050312;28;20021;-63
2022/09/02 07:36:09;;;;;;;2.20;1.55;;;19.30;59.60;;;;;;5041305;28;20025;-61
2022/09/02 07:38:35;;;;;;;2.22;1.50;;;19.40;59.70;;;;;;5039943;28;20017;-61
2022/09/02 07:41:02;;;;;;;2.33;1.33;;;19.50;58.90;;;;;;5039919;28;20051;-63
2022/09/02 07:43:28;;;;;;;1.83;1.50;;;19.60;58.80;;;;;;5044578;28;20029;-61
2022/09/02 07:45:55;;;;;;;1.90;1.52;;;19.60;58.60;;;;;;5042065;28;20069;-64
2022/09/02 07:48:25;;;;;;;3.45;1.38;;;19.70;58.40;;;;;;5043067;28;20025;-62
2022/09/02 07:50:51;;;;;;;3.40;1.40;;;19.80;58.10;;;;;;5047524;28;20120;-62
2022/09/02 07:53:18;;;;;;;1.55;1.27;;;19.80;57.90;;;;;;5054218;28;20025;-62
2022/09/02 07:55:45;;;;;;;2.85;1.60;;;19.90;57.80;;;;;;5062943;28;20466;-62
2022/09/02 07:58:11;;;;;;;3.55;1.30;;;20.00;57.80;;;;;;5055777;28;20040;-62
2022/09/02 08:00:37;;;;;;;3.28;1.10;;;20.10;57.60;;;;;;5066608;28;20029;-62
2022/09/02 08:03:04;;;;;;;3.83;1.60;;;20.20;57.30;;;;;;5045963;28;20034;-64
2022/09/02 08:05:31;;;;;;;3.38;1.58;;;20.30;57.20;;;;;;5060140;28;20039;-61
2022/09/02 08:07:59;;;;;;;4.22;1.40;;;20.30;56.90;;;;;;5063890;28;20056;-61
2022/09/02 08:10:28;;;;;;;4.40;1.60;;;20.40;56.80;;;;;;5046652;28;20060;-63
2022/09/02 08:12:56;;;;;;;8.52;1.48;;;20.50;56.80;;;;;;5065002;28;20062;-63
2022/09/02 08:15:23;;;;;;;3.53;1.20;;;20.60;56.40;;;;;;5038957;28;20040;-63
2022/09/02 08:17:49;;;;;;;4.88;1.65;;;20.70;56.40;;;;;;5055844;28;20021;-62
2022/09/02 08:20:16;;;;;;;1.85;1.33;;;20.80;56.00;;;;;;5048700;28;20084;-61
2022/09/02 08:22:42;;;;;;;3.53;1.52;;;20.80;55.80;;;;;;5056542;28;20021;-62
2022/09/02 08:25:09;;;;;;;2.53;1.40;;;20.90;55.50;;;;;;5060868;28;20037;-63
2022/09/02 08:27:36;;;;;;;4.22;1.60;;;21.00;55.60;;;;;;5057932;28;20034;-62
2022/09/02 08:30:03;;;;;;;2.50;1.15;;;21.10;55.70;;;;;;5061739;28;20048;-61
2022/09/02 08:32:31;;;;;;;3.42;1.27;;;21.20;55.30;;;;;;5063267;28;20070;-62
2022/09/02 08:35:01;;;;;;;3.40;1.48;;;21.30;55.10;;;;;;5046211;28;20017;-61
2022/09/02 08:37:28;;;;;;;4.40;1.48;;;21.40;55.00;;;;;;5059497;28;20021;-61
2022/09/02 08:39:54;;;;;;;2.45;1.25;;;21.50;54.70;;;;;;5061939;28;20581;-62
2022/09/02 08:42:30;;;;;;;1.60;1.20;;;21.60;53.60;;;;;;5068294;28;20029;-63
2022/09/02 08:45:21;;;;;;;1.95;1.00;;;21.60;53.50;;;;;;5050329;28;20040;-60
2022/09/02 08:47:57;;;;;;;3.75;1.10;;;21.70;52.60;;;;;;5041220;28;20029;-61
2022/09/02 08:50:23;;;;;;;6.80;1.52;;;21.80;53.20;;;;;;5045824;28;20093;-63
2022/09/02 08:53:14;;;;;;;3.13;1.10;;;21.80;53.50;;;;;;5050597;28;20049;-63
2022/09/02 08:55:54;;;;;;;2.00;1.10;;;21.90;53.30;;;;;;5044402;28;20048;-62
2022/09/02 08:58:26;;;;;;;3.15;1.23;;;22.00;52.90;;;;;;5039750;28;20077;-63
2022/09/02 09:01:12;;;;;;;1.88;0.93;;;22.10;53.30;;;;;;5041069;28;20183;-63
2022/09/02 09:04:25;;;;;;;3.22;1.02;;;22.20;52.10;;;;;;5062573;28;20041;-61
2022/09/02 09:07:34;;;;;;;4.55;1.35;;;22.30;52.00;;;;;;5013989;28;20576;-63
2022/09/02 09:10:18;;;;;;;2.53;1.08;;;22.40;52.00;;;;;;5001425;28;20031;-63
2022/09/02 09:12:59;;;;;;;3.88;1.30;;;22.50;51.40;;;;;;5014133;28;20065;-62
2022/09/02 09:15:30;;;;;;;4.10;1.10;;;22.60;50.60;;;;;;5018929;28;20080;-61
2022/09/02 09:17:59;;;;;;;2.55;1.10;;;22.60;50.40;;;;;;5009391;28;20042;-61
2022/09/02 09:20:27;;;;;;;5.53;1.38;;;22.70;50.60;;;;;;5018491;28;20065;-60
2022/09/02 09:22:58;;;;;;;2.67;1.40;;;22.70;50.30;;;;;;5031425;28;20026;-61
2022/09/02 09:25:28;;;;;;;2.35;1.30;;;22.70;50.30;;;;;;5019994;28;20037;-63
2022/09/02 09:27:58;;;;;;;5.00;1.20;;;22.80;50.30;;;;;;5032312;28;20041;-62
2022/09/02 09:30:24;;;;;;;3.67;1.00;;;22.80;50.30;;;;;;5015857;28;20271;-62
2022/09/02 09:32:58;;;;;;;1.45;1.02;;;22.90;50.40;;;;;;5033228;28;20037;-62
2022/09/02 09:35:26;;;;;;;3.42;1.05;;;23.30;50.00;;;;;;4998033;28;20046;-62
2022/09/02 09:37:55;;;;;;;1.45;0.98;;;23.00;49.80;;;;;;5031592;28;20026;-62
2022/09/02 09:40:31;;;;;;;4.05;1.10;;;23.10;49.40;;;;;;5031836;28;20030;-62
2022/09/02 09:43:09;;;;;;;2.17;1.05;;;23.20;48.50;;;;;;5054708;28;20048;-62
2022/09/02 09:45:40;;;;;;;2.90;1.40;;;23.20;48.80;;;;;;5040198;28;20117;-61
2022/09/02 09:48:32;;;;;;;2.88;1.10;;;23.40;48.20;;;;;;5043469;28;20112;-62
2022/09/02 09:50:57;;;;;;;2.70;1.10;;;23.50;47.10;;;;;;5041052;28;20056;-61
2022/09/02 09:53:25;;;;;;;3.85;1.10;;;23.60;48.20;;;;;;5049994;28;20034;-63
2022/09/02 09:56:00;;;;;;;4.25;1.10;;;23.60;47.70;;;;;;5054857;28;20037;-62
2022/09/02 09:58:34;;;;;;;8.80;3.10;;;23.70;48.00;;;;;;5047987;28;20090;-61
2022/09/02 10:01:11;;;;;;;5.88;1.20;;;23.80;47.30;;;;;;5049801;28;20086;-61
2022/09/02 10:03:42;;;;;;;2.22;0.90;;;23.80;46.00;;;;;;5046594;28;20037;-62
2022/09/02 10:06:18;;;;;;;2.83;1.30;;;23.90;46.90;;;;;;5036111;28;20045;-63
2022/09/02 10:08:59;;;;;;;1.55;1.10;;;24.00;46.10;;;;;;5048962;28;20029;-61
2022/09/02 10:11:27;;;;;;;3.42;1.05;;;24.00;45.80;;;;;;5048292;28;20068;-61
2022/09/02 10:14:08;;;;;;;3.67;0.90;;;24.20;46.10;;;;;;5040680;28;20033;-62
2022/09/02 10:16:57;;;;;;;3.65;1.10;;;24.30;44.90;;;;;;5053655;28;20040;-63
2022/09/02 10:19:33;;;;;;;1.65;1.10;;;24.30;44.80;;;;;;5046970;28;20109;-62
2022/09/02 10:22:17;;;;;;;4.13;1.45;;;24.40;43.70;;;;;;5032138;28;20560;-63
2022/09/02 10:25:19;;;;;;;9.80;1.05;;;24.40;44.10;;;;;;5048289;28;20037;-61
2022/09/02 10:27:49;;;;;;;5.63;0.90;;;24.50;42.70;;;;;;5044980;28;20033;-61
2022/09/02 10:30:23;;;;;;;1.98;1.00;;;24.50;45.10;;;;;;5035991;28;20032;-62
2022/09/02 10:33:24;;;;;;;2.40;0.95;;;24.50;43.10;;;;;;5048070;28;20021;-61
2022/09/02 10:36:19;;;;;;;2.83;1.10;;;24.50;43.50;;;;;;5058956;28;20139;-62
2022/09/02 10:38:49;;;;;;;1.83;0.82;;;24.50;43.20;;;;;;5043184;28;20053;-61
2022/09/02 10:41:46;;;;;;;3.33;0.95;;;24.60;44.20;;;;;;5029964;28;20021;-62
2022/09/02 10:45:02;;;;;;;1.85;1.08;;;24.70;43.50;;;;;;5032962;28;20029;-62
2022/09/02 10:47:39;;;;;;;8.65;1.13;;;24.70;43.10;;;;;;5031551;28;20048;-63
2022/09/02 10:50:35;;;;;;;3.25;0.93;;;24.80;44.70;;;;;;5056139;28;20079;-62
2022/09/02 10:53:21;;;;;;;2.22;1.05;;;24.90;43.70;;;;;;5040054;28;20078;-62
2022/09/02 10:55:53;;;;;;;2.45;1.10;;;25.00;42.70;;;;;;5047661;28;20033;-61
2022/09/02 10:58:25;;;;;;;1.58;0.95;;;25.10;43.70;;;;;;5065916;28;20021;-62
2022/09/02 11:00:55;;;;;;;2.53;1.00;;;25.20;42.50;;;;;;5027815;28;20029;-62
2022/09/02 11:03:33;;;;;;;3.05;1.10;;;25.20;43.20;;;;;;5053470;28;20076;-61
2022/09/02 11:06:19;;;;;;;1.25;0.75;;;25.30;42.30;;;;;;5052513;28;20040;-63
2022/09/02 11:08:53;;;;;;;1.92;1.13;;;25.30;42.50;;;;;;5054074;28;20083;-63
2022/09/02 11:11:25;;;;;;;1.30;0.70;;;25.40;42.50;;;;;;5045624;28;20044;-62
2022/09/02 11:13:51;;;;;;;1.55;0.90;;;25.40;42.70;;;;;;5037643;28;20048;-62
2022/09/02 11:16:33;;;;;;;0.75;0.65;;;25.50;42.30;;;;;;5047748;28;20076;-63
2022/09/02 11:19:27;;;;;;;2.25;0.85;;;25.60;42.40;;;;;;5038682;28;20045;-63
2022/09/02 11:22:23;;;;;;;1.42;0.98;;;25.70;42.90;;;;;;5047819;28;20029;-63
2022/09/02 11:25:08;;;;;;;1.92;0.88;;;25.70;40.90;;;;;;5056540;28;20035;-62
2022/09/02 11:28:19;;;;;;;0.88;0.77;;;25.80;41.70;;;;;;5038801;28;20095;-63
2022/09/02 11:30:59;;;;;;;1.20;0.85;;;25.80;41.80;;;;;;5037926;28;20049;-63
2022/09/02 11:33:33;;;;;;;3.05;1.00;;;25.90;42.10;;;;;;5046981;28;20037;-62
2022/09/02 11:35:59;;;;;;;2.63;1.30;;;26.00;40.70;;;;;;5045654;28;20567;-60
2022/09/02 11:38:40;;;;;;;1.23;0.93;;;25.90;39.20;;;;;;5037849;28;20038;-60
2022/09/02 11:41:31;;;;;;;1.83;0.95;;;25.90;39.50;;;;;;5025126;28;20037;-61
2022/09/02 11:44:22;;;;;;;3.63;1.00;;;25.90;40.40;;;;;;5032003;28;20042;-62
2022/09/02 11:47:35;;;;;;;1.90;0.88;;;26.00;39.70;;;;;;5043495;28;20053;-60
2022/09/02 11:50:38;;;;;;;1.67;0.80;;;26.00;39.40;;;;;;5028898;28;20052;-60
2022/09/02 11:53:22;;;;;;;2.38;0.70;;;26.10;37.40;;;;;;5057241;28;20056;-62
2022/09/02 11:56:15;;;;;;;2.90;0.80;;;26.20;40.10;;;;;;5027632;28;20164;-61
2022/09/02 11:58:43;;;;;;;1.35;0.77;;;26.30;39.60;;;;;;5036366;28;20049;-61
2022/09/02 12:01:14;;;;;;;1.33;0.60;;;26.30;40.90;;;;;;5024108;28;20061;-62
2022/09/02 12:04:15;;;;;;;3.40;0.70;;;26.40;40.00;;;;;;5041905;28;20065;-60
2022/09/02 12:07:18;;;;;;;1.23;0.90;;;26.40;37.00;;;;;;5020406;28;20133;-61
2022/09/02 12:09:53;;;;;;;1.63;0.77;;;26.50;39.60;;;;;;5045453;28;20144;-61
2022/09/02 12:12:37;;;;;;;3.42;0.80;;;26.60;39.90;;;;;;5041747;28;20029;-62
2022/09/02 12:15:07;;;;;;;3.05;0.80;;;26.60;37.80;;;;;;5038348;28;20074;-60
2022/09/02 12:17:36;;;;;;;4.38;0.98;;;26.70;40.10;;;;;;5050318;28;20022;-60
2022/09/02 12:20:05;;;;;;;3.45;0.80;;;26.80;39.10;;;;;;5043122;28;20049;-61
2022/09/02 12:22:37;;;;;;;0.88;0.77;;;26.90;39.20;;;;;;5051256;28;20409;-60
2022/09/02 12:25:23;;;;;;;4.03;0.90;;;27.00;38.90;;;;;;5031400;28;20044;-61
2022/09/02 12:27:49;;;;;;;1.95;0.85;;;27.10;38.50;;;;;;5035239;28;20046;-61
2022/09/02 12:30:54;;;;;;;2.35;1.02;;;27.20;38.00;;;;;;5057873;28;20026;-60
2022/09/02 12:33:32;;;;;;;0.88;0.75;;;27.20;35.20;;;;;;5039034;28;20060;-61
2022/09/02 12:35:58;;;;;;;1.60;0.80;;;27.20;36.40;;;;;;5050588;28;20037;-61
2022/09/02 12:38:27;;;;;;;2.47;0.70;;;27.20;37.30;;;;;;5039867;28;20025;-62
2022/09/02 12:41:04;;;;;;;0.80;0.70;;;27.20;37.80;;;;;;5059726;28;20022;-60
2022/09/02 12:43:31;;;;;;;5.20;0.90;;;27.30;38.00;;;;;;5040800;28;20052;-61
2022/09/02 12:46:16;;;;;;;5.47;1.05;;;27.40;38.20;;;;;;5057584;28;20034;-61
2022/09/02 12:48:55;;;;;;;3.38;0.70;;;27.50;37.30;;;;;;5035600;28;20041;-62
2022/09/02 12:51:51;;;;;;;0.98;0.77;;;27.60;36.60;;;;;;5042421;28;20029;-62
2022/09/02 12:54:21;;;;;;;1.40;0.80;;;27.60;34.60;;;;;;5049619;28;20025;-61
2022/09/02 12:56:48;;;;;;;5.32;0.60;;;27.70;37.10;;;;;;5033475;28;20495;-62
2022/09/02 12:59:28;;;;;;;2.40;0.80;;;27.80;36.90;;;;;;5035629;28;20045;-62
2022/09/02 13:02:20;;;;;;;1.30;0.70;;;27.90;36.20;;;;;;5033892;28;20081;-62
2022/09/02 13:05:14;;;;;;;5.75;1.00;;;27.90;35.50;;;;;;5045170;28;20022;-60
2022/09/02 13:07:46;;;;;;;;;;;28.00;34.90;;;;;;5032783;28;20030;-60
2022/09/02 13:10:20;;;;;;;1.33;0.70;;;28.10;33.90;;;;;;5033792;28;19936;-62
2022/09/02 13:12:55;;;;;;;1.00;0.73;;;28.10;36.40;;;;;;5034447;28;20037;-61